JEF weather

Jorge Efrain Airport
Teapa, Tabasco, Mexico

Public forecast

Using degrees Celsius for public forecast. Weather courtesy of forecast.io.

METAR (pilot weather report)

Closest report is Carlos Rovirosa Pérez International Airport, 21.2 nm (39.4 km) NNE. Retrieved 2019/09/21 18:43 UTC (0 seconds ago):

MMVA 211843Z 00000KT 7SM SCT015 BKN200 32/23 A2992 RMK 8/108 TCU N

TAF (pilot weather forecast)

Closest forecast is Carlos Rovirosa Pérez International Airport, 21.2 nm (39.4 km) NNE. Retrieved 2019/09/21 18:36 UTC (0 seconds ago):

TAF MMVA 211730Z 2118/2218 03010KT P6SM BKN010 BKN060 FM212100 06015KT P6SM BKN010CB OVC080 TEMPO 2121/2201 3SM TSRA BECMG 2202/2203 5SM -RA FM220900 00000KT 3SM HZ OVC010 FM221500 13010KT 4SM HZ SCT010 BKN080